Terminal Aerodrome Forecast
Issued by NWS Rapid City, SD

Home | Current Version | Previous Version | Text Only | Print | Product List | Glossary Off
Versions: 1 2 3 4 5 6 7 8 9 10 11 12 13

000
FTUS43 KUNR 260500
TAFRAP
TAF
KRAP 260520Z 2606/2706 VRB05KT P6SM BKN100
     FM261500 34025G35KT P6SM BKN080
     FM270100 36009KT P6SM BKN060=

USA.gov is the U.S. government's official web portal to all federal, state and local government web resources and services.